Terminal Aerodrome Forecast
Issued by NWS North Platte, NE

Home | Current Version | Previous Version | Graphics & Text | Print | Product List | Glossary On
Versions: 1 2 3 4 5 6 7 8 9 10 11 12 13 14 15
090
FTUS43 KLBF 241720
TAFVTN
TAF
KVTN 241720Z 2418/2518 34012G18KT P6SM SCT120 OVC200
     FM242300 34008KT P6SM SCT120 BKN200
     FM250500 30006KT P6SM BKN250
     FM250800 33006KT P6SM BKN250=

USA.gov is the U.S. government's official web portal to all federal, state and local government web resources and services.